Main page
METAR-TAF:

METAR-TAF

Airports :

Oil platform

Goeree Le, Netherlands

latitude: 51-55-33N, longitude: 3-40-12E, elevation: 19 m

Current weather observation

The report was made 27 minutes ago, at 07:25 UTC
Wind 16 kt from the West/Southwest
Temperature 15°C
Humidity 94%
Pressure 1003 hPa
Visibility: 3900 m
light rain

METAR: EHSC 180725Z AUTO 25016KT 3900 -RA ///////// 15/14 Q1003 RERA REDZ W19/H8

Time: 09:52 (07:52 UTC)


TAF: missing

Weather observations and forecasts of more than 4000 airports (METAR and TAF reports).

The available stations are represented by yellow and red dots on the map.

Hover mouse over dot to see the name of the station.

Then click to see weather observations and forecasts.

To change the map : click on the green buttons with a black cross to zoom in, on the green button with a dash to zoom out, or on the green arrows for adjacent maps.


METAR-TAF: